Time,TemperatureF,DewpointF,PressureIn,WindDirection,WindDirectionDegrees,WindSpeedMPH,WindSpeedGustMPH,Humidity,HourlyPrecipIn,Conditions,Clouds,dailyrainin,SoftwareType,DateUTC
2013-03-25 09:10:00,41.5,26.1,29.64,SE,146,0.0,0.0,54,0.00,CLR,CLR,0.39,WeatherDisplay:10.37,2013-03-25 16:10:00,
2013-03-25 09:15:00,41.4,25.9,29.64,ESE,119,2.0,2.0,54,0.00,CLR,CLR,0.39,WeatherDisplay:10.37,2013-03-25 16:15:00,
2013-03-25 09:20:00,41.4,25.9,29.65,East,97,2.0,5.0,54,0.00,CLR,CLR,0.39,WeatherDisplay:10.37,2013-03-25 16:20:00,
2013-03-25 09:25:00,41.4,26.4,29.65,SE,142,2.0,5.0,55,0.00,CLR,CLR,0.39,WeatherDisplay:10.37,2013-03-25 16:25:00,
2013-03-25 09:30:00,41.2,26.2,29.65,South,169,2.0,3.0,55,0.00,CLR,CLR,0.39,WeatherDisplay:10.37,2013-03-25 16:30:00,
2013-03-25 09:35:00,41.0,26.1,29.65,SSE,167,2.0,3.0,55,0.00,CLR,CLR,0.39,WeatherDisplay:10.37,2013-03-25 16:35:00,
2013-03-25 09:40:00,41.0,26.1,29.64,SSE,153,2.0,3.0,55,0.00,CLR,CLR,0.39,WeatherDisplay:10.37,2013-03-25 16:40:00,
2013-03-25 09:45:00,40.6,26.2,29.64,SE,136,2.0,5.0,56,0.00,CLR,CLR,0.39,WeatherDisplay:10.37,2013-03-25 16:45:00,
2013-03-25 09:50:00,40.5,26.0,29.64,SSE,155,2.0,5.0,56,0.00,CLR,CLR,0.39,WeatherDisplay:10.37,2013-03-25 16:50:00,
2013-03-25 09:55:00,40.3,26.2,29.64,South,176,2.0,4.0,57,0.00,CLR,CLR,0.39,WeatherDisplay:10.37,2013-03-25 16:55:00,
2013-03-25 10:00:00,39.9,26.3,29.64,SSE,152,2.0,3.0,58,0.00,CLR,CLR,0.39,WeatherDisplay:10.37,2013-03-25 17:00:00,
2013-03-25 10:05:00,39.9,26.3,29.64,SE,137,2.0,2.0,58,0.00,RA,RA,0.00,WeatherDisplay:10.37,2013-03-25 17:05:00,
2013-03-25 10:10:00,39.9,26.3,29.64,SSE,149,2.0,2.0,58,0.00,RA,RA,0.00,WeatherDisplay:10.37,2013-03-25 17:10:00,
2013-03-25 10:15:00,39.6,26.4,29.64,SSE,153,2.0,2.0,59,0.00,CLR,CLR,0.00,WeatherDisplay:10.37,2013-03-25 17:15:00,
2013-03-25 10:20:00,39.6,26.4,29.64,SE,126,2.0,3.0,59,0.00,CLR,CLR,0.00,WeatherDisplay:10.37,2013-03-25 17:20:00,
2013-03-25 10:25:00,39.4,26.2,29.64,SE,127,1.0,3.0,59,0.00,CLR,CLR,0.00,WeatherDisplay:10.37,2013-03-25 17:25:00,
2013-03-25 10:30:00,39.4,26.2,29.64,SE,131,1.0,2.0,59,0.00,CLR,CLR,0.00,WeatherDisplay:10.37,2013-03-25 17:30:00,
2013-03-25 10:35:00,39.4,26.6,29.64,East,91,1.0,2.0,60,0.00,CLR,CLR,0.00,WeatherDisplay:10.37,2013-03-25 17:35:00,
2013-03-25 10:40:00,39.2,26.5,29.64,ESE,104,1.0,1.0,60,0.00,CLR,CLR,0.00,WeatherDisplay:10.37,2013-03-25 17:40:00,
2013-03-25 10:45:00,25.4,18.3,29.85,North,0,0.0,0.0,74,0.00,CLR,,0.39,WeatherDisplay:10.37,2013-03-25 17:45:00,
2013-03-25 10:50:00,39.0,27.9,29.64,SE,138,2.0,5.0,64,0.00,CLR,CLR,0.00,WeatherDisplay:10.37,2013-03-25 17:50:00,
2013-03-25 10:55:00,38.8,27.7,29.64,East,99,1.0,5.0,64,0.00,CLR,CLR,0.00,WeatherDisplay:10.37,2013-03-25 17:55:00,
2013-03-25 11:00:00,38.8,27.7,29.64,ESE,107,1.0,1.0,64,0.00,CLR,CLR,0.00,WeatherDisplay:10.37,2013-03-25 18:00:00,
2013-03-25 11:05:00,38.8,28.1,29.64,SE,146,1.0,1.0,65,0.00,CLR,CLR,0.00,WeatherDisplay:10.37,2013-03-25 18:05:00,
2013-03-25 11:10:00,38.8,27.7,29.64,SSE,151,0.0,3.0,64,0.00,CLR,CLR,0.00,WeatherDisplay:10.37,2013-03-25 18:10:00,
2013-03-25 11:15:00,38.8,27.7,29.64,SSE,156,1.0,4.0,64,0.00,CLR,CLR,0.00,WeatherDisplay:10.37,2013-03-25 18:15:00,
2013-03-25 11:20:00,38.8,28.1,29.64,South,174,1.0,4.0,65,0.00,CLR,CLR,0.00,WeatherDisplay:10.37,2013-03-25 18:20:00,
2013-03-25 11:25:00,38.8,28.1,29.64,SSW,205,1.0,2.0,65,0.00,CLR,CLR,0.00,WeatherDisplay:10.37,2013-03-25 18:25:00,
2013-03-25 11:30:00,38.8,28.1,29.64,South,191,0.0,2.0,65,0.00,CLR,CLR,0.00,WeatherDisplay:10.37,2013-03-25 18:30:00,
2013-03-25 11:35:00,38.8,28.1,29.64,SSE,158,0.0,0.0,65,0.00,CLR,CLR,0.00,WeatherDisplay:10.37,2013-03-25 18:35:00,
2013-03-25 11:40:00,38.8,28.1,29.63,SSE,157,0.0,0.0,65,0.00,CLR,CLR,0.00,WeatherDisplay:10.37,2013-03-25 18:40:00,
2013-03-25 11:45:00,38.8,28.4,29.63,SE,139,0.0,2.0,66,0.00,CLR,CLR,0.00,WeatherDisplay:10.37,2013-03-25 18:45:00,
2013-03-25 11:50:00,38.8,28.4,29.63,SE,133,0.0,2.0,66,0.00,CLR,CLR,0.00,WeatherDisplay:10.37,2013-03-25 18:50:00,
2013-03-25 11:55:00,38.8,28.4,29.63,SE,144,0.0,0.0,66,0.00,CLR,CLR,0.00,WeatherDisplay:10.37,2013-03-25 18:55:00,
2013-03-25 12:00:00,38.8,28.8,29.63,SE,138,0.0,0.0,67,0.00,CLR,CLR,0.00,WeatherDisplay:10.37,2013-03-25 19:00:00,
2013-03-25 12:05:00,38.7,29.0,29.63,SE,137,0.0,0.0,68,0.00,CLR,CLR,0.00,WeatherDisplay:10.37,2013-03-25 19:05:00,
2013-03-25 12:10:00,38.7,29.0,29.63,SSE,147,0.0,0.0,68,0.00,CLR,CLR,0.00,WeatherDisplay:10.37,2013-03-25 19:10:00,
2013-03-25 12:15:00,38.5,29.2,29.63,SSE,152,0.0,1.0,69,0.00,CLR,CLR,0.00,WeatherDisplay:10.37,2013-03-25 19:15:00,
2013-03-25 12:20:00,38.5,29.5,29.63,SE,134,0.0,1.0,70,0.00,CLR,CLR,0.00,WeatherDisplay:10.37,2013-03-25 19:20:00,
2013-03-25 12:25:00,38.3,29.4,29.63,SSE,158,0.0,1.0,70,0.00,CLR,CLR,0.00,WeatherDisplay:10.37,2013-03-25 19:25:00,
2013-03-25 12:30:00,38.3,29.4,29.63,SSW,198,0.0,1.0,70,0.00,CLR,CLR,0.00,WeatherDisplay:10.37,2013-03-25 19:30:00,
2013-03-25 12:35:00,38.1,29.2,29.63,South,187,0.0,0.0,70,0.00,CLR,CLR,0.00,WeatherDisplay:10.37,2013-03-25 19:35:00,
2013-03-25 12:40:00,38.1,29.2,29.62,East,82,0.0,0.0,70,0.00,CLR,CLR,0.00,WeatherDisplay:10.37,2013-03-25 19:40:00,
2013-03-25 12:45:00,38.1,29.2,29.62,NE,51,0.0,2.0,70,0.00,CLR,CLR,0.00,WeatherDisplay:10.37,2013-03-25 19:45:00,
2013-03-25 12:50:00,37.9,29.0,29.62,ENE,67,0.0,2.0,70,0.00,CLR,CLR,0.00,WeatherDisplay:10.37,2013-03-25 19:50:00,
2013-03-25 12:55:00,37.8,28.9,29.62,SE,137,0.0,2.0,70,0.00,CLR,CLR,0.00,WeatherDisplay:10.37,2013-03-25 19:55:00,
2013-03-25 13:00:00,37.8,28.9,29.63,SE,145,0.0,3.0,70,0.00,CLR,CLR,0.00,WeatherDisplay:10.37,2013-03-25 20:00:00,
2013-03-25 13:05:00,37.8,28.9,29.63,SSE,149,0.0,3.0,70,0.00,CLR,CLR,0.00,WeatherDisplay:10.37,2013-03-25 20:05:00,
2013-03-25 13:10:00,37.8,28.9,29.63,SSE,162,0.0,1.0,70,0.00,CLR,CLR,0.00,WeatherDisplay:10.37,2013-03-25 20:10:00,
2013-03-25 13:15:00,37.2,29.0,29.63,SSE,166,1.0,1.0,72,0.00,CLR,CLR,0.00,WeatherDisplay:10.37,2013-03-25 20:15:00,
2013-03-25 13:20:00,37.2,29.0,29.63,SE,134,1.0,0.0,72,0.00,CLR,CLR,0.00,WeatherDisplay:10.37,2013-03-25 20:20:00,
2013-03-25 13:25:00,37.0,28.8,29.63,ESE,105,0.0,0.0,72,0.00,CLR,CLR,0.00,WeatherDisplay:10.37,2013-03-25 20:25:00,
2013-03-25 13:30:00,37.0,29.2,29.63,ESE,106,1.0,3.0,73,0.00,CLR,CLR,0.00,WeatherDisplay:10.37,2013-03-25 20:30:00,
2013-03-25 13:35:00,25.4,18.3,29.85,North,0,0.0,0.0,74,0.00,CLR,,0.39,WeatherDisplay:10.37,2013-03-25 20:35:00,
2013-03-25 13:40:00,37.0,29.2,29.62,SSE,152,0.0,2.0,73,0.00,CLR,CLR,0.00,WeatherDisplay:10.37,2013-03-25 20:40:00,
2013-03-25 13:45:00,37.0,29.5,29.62,South,176,0.0,2.0,74,0.00,CLR,CLR,0.00,WeatherDisplay:10.37,2013-03-25 20:45:00,
2013-03-25 13:50:00,37.0,29.5,29.62,South,191,0.0,0.0,74,0.00,CLR,CLR,0.00,WeatherDisplay:10.37,2013-03-25 20:50:00,
2013-03-25 13:55:00,37.0,29.5,29.62,SSE,155,0.0,0.0,74,0.00,CLR,CLR,0.00,WeatherDisplay:10.37,2013-03-25 20:55:00,
2013-03-25 14:00:00,37.0,29.5,29.62,ENE,76,0.0,0.0,74,0.00,CLR,CLR,0.00,WeatherDisplay:10.37,2013-03-25 21:00:00,
2013-03-25 14:05:00,37.0,29.8,29.62,East,93,0.0,0.0,75,0.00,CLR,CLR,0.00,WeatherDisplay:10.37,2013-03-25 21:05:00,
2013-03-25 14:10:00,36.9,30.0,29.62,SE,143,0.0,0.0,76,0.00,CLR,CLR,0.00,WeatherDisplay:10.37,2013-03-25 21:10:00,
2013-03-25 14:15:00,36.9,30.0,29.62,ESE,116,0.0,0.0,76,0.00,CLR,CLR,0.00,WeatherDisplay:10.37,2013-03-25 21:15:00,
2013-03-25 14:20:00,36.9,30.0,29.62,East,97,0.0,1.0,76,0.00,CLR,CLR,0.00,WeatherDisplay:10.37,2013-03-25 21:20:00,
2013-03-25 14:25:00,36.9,30.0,29.62,SSE,149,1.0,1.0,76,0.00,CLR,CLR,0.00,WeatherDisplay:10.37,2013-03-25 21:25:00,
2013-03-25 14:30:00,36.9,30.0,29.62,SE,144,1.0,2.0,76,0.00,CLR,CLR,0.00,WeatherDisplay:10.37,2013-03-25 21:30:00,
2013-03-25 14:35:00,36.9,30.0,29.62,SE,146,1.0,2.0,76,0.00,CLR,CLR,0.00,WeatherDisplay:10.37,2013-03-25 21:35:00,
2013-03-25 14:40:00,36.9,30.0,29.62,SE,134,0.0,2.0,76,0.00,CLR,CLR,0.00,WeatherDisplay:10.37,2013-03-25 21:40:00,
2013-03-25 14:45:00,36.9,30.0,29.62,ESE,114,0.0,0.0,76,0.00,CLR,CLR,0.00,WeatherDisplay:10.37,2013-03-25 21:45:00,
2013-03-25 14:50:00,36.9,30.0,29.62,SE,139,0.0,0.0,76,0.00,CLR,CLR,0.00,WeatherDisplay:10.37,2013-03-25 21:50:00,
2013-03-25 14:55:00,36.9,30.0,29.62,South,183,0.0,0.0,76,0.00,CLR,CLR,0.00,WeatherDisplay:10.37,2013-03-25 21:55:00,
2013-03-25 15:00:00,36.9,30.0,29.62,NNE,31,0.0,0.0,76,0.00,CLR,CLR,0.00,WeatherDisplay:10.37,2013-03-25 22:00:00,
2013-03-25 15:05:00,36.3,29.8,29.62,NE,45,0.0,0.0,77,0.00,CLR,CLR,0.00,WeatherDisplay:10.37,2013-03-25 22:05:00,
2013-03-25 15:10:00,36.5,30.0,29.62,NE,53,0.0,0.0,77,0.00,CLR,CLR,0.00,WeatherDisplay:10.37,2013-03-25 22:10:00,
2013-03-25 15:15:00,36.5,30.0,29.62,NE,37,0.0,0.0,77,0.00,CLR,CLR,0.00,WeatherDisplay:10.37,2013-03-25 22:15:00,
2013-03-25 15:20:00,36.7,29.8,29.62,ENE,70,0.0,0.0,76,0.00,CLR,CLR,0.00,WeatherDisplay:10.37,2013-03-25 22:20:00,
2013-03-25 15:25:00,36.7,30.1,29.62,ENE,58,0.0,0.0,77,0.00,CLR,CLR,0.00,WeatherDisplay:10.37,2013-03-25 22:25:00,
2013-03-25 15:30:00,36.7,30.1,29.62,North,360,0.0,0.0,77,0.00,CLR,CLR,0.00,WeatherDisplay:10.37,2013-03-25 22:30:00,
2013-03-25 15:35:00,36.5,30.6,29.62,North,360,0.0,0.0,79,0.00,CLR,CLR,0.00,WeatherDisplay:10.37,2013-03-25 22:35:00,
2013-03-25 15:40:00,36.5,30.6,29.62,North,353,0.0,0.0,79,0.00,CLR,CLR,0.00,WeatherDisplay:10.37,2013-03-25 22:40:00,
2013-03-25 15:45:00,36.5,30.6,29.62,NW,326,0.0,0.0,79,0.00,CLR,CLR,0.00,WeatherDisplay:10.37,2013-03-25 22:45:00,
2013-03-25 15:50:00,36.5,30.9,29.62,NNW,334,0.0,0.0,80,0.00,CLR,CLR,0.00,WeatherDisplay:10.37,2013-03-25 22:50:00,
2013-03-25 15:55:00,36.3,30.7,29.62,NNE,19,0.0,0.0,80,0.00,CLR,CLR,0.00,WeatherDisplay:10.37,2013-03-25 22:55:00,
2013-03-25 16:00:00,36.3,30.7,29.62,NE,45,0.0,0.0,80,0.00,CLR,CLR,0.00,WeatherDisplay:10.37,2013-03-25 23:00:00,
2013-03-25 16:05:00,36.3,30.7,29.62,NE,45,0.0,0.0,80,0.00,CLR,CLR,0.00,WeatherDisplay:10.37,2013-03-25 23:05:00,
2013-03-25 16:10:00,36.3,30.7,29.62,NE,45,0.0,0.0,80,0.00,CLR,CLR,0.00,WeatherDisplay:10.37,2013-03-25 23:10:00,
2013-03-25 16:15:00,36.5,31.2,29.62,NE,43,0.0,0.0,81,0.00,CLR,CLR,0.00,WeatherDisplay:10.37,2013-03-25 23:15:00,
2013-03-25 16:20:00,36.5,31.2,29.62,NNE,31,0.0,0.0,81,0.00,CLR,CLR,0.00,WeatherDisplay:10.37,2013-03-25 23:20:00,
2013-03-25 16:25:00,36.5,31.2,29.62,NNE,22,0.0,0.0,81,0.00,CLR,CLR,0.00,WeatherDisplay:10.37,2013-03-25 23:25:00,
2013-03-25 16:30:00,36.5,31.2,29.62,NNE,22,0.0,0.0,81,0.00,CLR,CLR,0.00,WeatherDisplay:10.37,2013-03-25 23:30:00,
2013-03-25 16:35:00,36.5,31.2,29.62,NNE,24,0.0,0.0,81,0.00,CLR,CLR,0.00,WeatherDisplay:10.37,2013-03-25 23:35:00,
2013-03-25 16:40:00,36.5,31.2,29.62,NE,34,0.0,0.0,81,0.00,CLR,CLR,0.00,WeatherDisplay:10.37,2013-03-25 23:40:00,
2013-03-25 16:45:00,36.5,31.2,29.62,NE,37,0.0,0.0,81,0.00,CLR,CLR,0.00,WeatherDisplay:10.37,2013-03-25 23:45:00,
2013-03-25 19:41:00,25.4,18.3,29.85,North,0,0.0,0.0,74,0.00,CLR,,0.39,WeatherDisplay:10.37,2013-03-26 02:41:00,
2013-03-25 19:42:00,25.4,18.3,29.85,North,0,0.0,0.0,74,0.00,RA,,0.39,WeatherDisplay:10.37,2013-03-26 02:42:00,
2013-03-25 19:46:00,25.4,18.3,29.85,NNW,338,0.0,0.0,74,0.00,RA,,0.39,WeatherDisplay:10.37,2013-03-26 02:46:00,
2013-03-25 19:47:00,25.4,18.3,29.85,NNW,338,0.0,0.0,74,0.00,RA,,0.39,WeatherDisplay:10.37,2013-03-26 02:47:00,
2013-03-25 19:52:00,44.2,26.8,29.59,East,90,0.3,0.0,50,0.00,CLR,,0.39,WeatherDisplay:10.37,2013-03-26 02:52:00,
2013-03-25 19:53:00,44.2,26.8,29.59,East,90,0.3,1.1,50,0.00,CLR,,0.39,WeatherDisplay:10.37,2013-03-26 02:53:00,
2013-03-25 19:57:00,44.1,26.6,29.59,ESE,112,0.5,2.3,50,0.00,CLR,,0.39,WeatherDisplay:10.37,2013-03-26 02:57:00,
2013-03-25 19:58:00,44.1,26.6,29.59,ESE,112,0.5,2.3,50,0.00,CLR,,0.39,WeatherDisplay:10.37,2013-03-26 02:58:00,
2013-03-25 20:02:00,43.9,26.4,29.60,NE,45,0.6,0.0,50,0.00,CLR,,0.39,WeatherDisplay:10.37,2013-03-26 03:02:00,
2013-03-25 20:03:00,43.9,26.4,29.60,NE,45,0.6,0.0,50,0.00,CLR,,0.39,WeatherDisplay:10.37,2013-03-26 03:03:00,
2013-03-25 20:04:00,43.9,26.4,29.60,SSE,158,0.5,0.0,50,0.00,CLR,,0.39,WeatherDisplay:10.37,2013-03-26 03:04:00,
2013-03-25 20:08:00,43.7,26.3,29.60,WNW,292,0.2,0.0,50,0.00,CLR,,0.39,WeatherDisplay:10.37,2013-03-26 03:08:00,
2013-03-25 20:09:00,43.7,26.3,29.60,WNW,292,0.2,0.0,50,0.00,CLR,,0.39,WeatherDisplay:10.37,2013-03-26 03:09:00,
2013-03-25 20:13:00,43.7,26.3,29.60,North,0,0.3,1.1,50,0.00,CLR,,0.39,WeatherDisplay:10.37,2013-03-26 03:13:00,
2013-03-25 20:14:00,43.5,26.1,29.60,South,180,0.3,0.0,50,0.00,CLR,,0.39,WeatherDisplay:10.37,2013-03-26 03:14:00,
2013-03-25 20:18:00,43.5,26.1,29.60,SE,135,0.3,1.1,50,0.00,CLR,,0.39,WeatherDisplay:10.37,2013-03-26 03:18:00,
2013-03-25 20:19:00,43.5,26.1,29.60,SE,135,0.3,0.0,50,0.00,CLR,,0.39,WeatherDisplay:10.37,2013-03-26 03:19:00,
2013-03-25 20:23:00,43.3,25.9,29.61,ESE,112,0.3,0.0,50,0.00,CLR,,0.39,WeatherDisplay:10.37,2013-03-26 03:23:00,
2013-03-25 20:24:00,43.3,25.9,29.61,ESE,112,0.3,0.0,50,0.00,CLR,,0.39,WeatherDisplay:10.37,2013-03-26 03:24:00,
2013-03-25 20:28:00,43.3,26.4,29.61,SSE,158,0.3,2.3,51,0.00,CLR,,0.39,WeatherDisplay:10.37,2013-03-26 03:28:00,
2013-03-25 20:29:00,43.3,26.4,29.61,NNE,22,0.5,2.3,51,0.00,CLR,,0.39,WeatherDisplay:10.37,2013-03-26 03:29:00,
2013-03-25 20:33:00,43.3,26.4,29.61,SE,135,0.9,2.9,51,0.00,CLR,,0.39,WeatherDisplay:10.37,2013-03-26 03:33:00,
2013-03-25 20:34:00,43.3,26.4,29.61,SE,135,0.9,2.3,51,0.00,CLR,,0.39,WeatherDisplay:10.37,2013-03-26 03:34:00,
2013-03-25 20:38:00,43.3,26.4,29.61,South,180,1.3,2.3,51,0.00,CLR,,0.39,WeatherDisplay:10.37,2013-03-26 03:38:00,
2013-03-25 20:39:00,43.3,26.4,29.61,South,180,1.3,2.3,51,0.00,CLR,,0.39,WeatherDisplay:10.37,2013-03-26 03:39:00,
2013-03-25 20:43:00,43.3,26.9,29.62,East,90,1.7,3.5,52,0.00,CLR,,0.39,WeatherDisplay:10.37,2013-03-26 03:43:00,
2013-03-25 20:44:00,43.3,26.9,29.62,East,90,1.7,3.5,52,0.00,CLR,,0.39,WeatherDisplay:10.37,2013-03-26 03:44:00,
2013-03-25 20:45:00,43.3,26.9,29.62,East,90,1.7,3.5,52,0.00,CLR,,0.39,WeatherDisplay:10.37,2013-03-26 03:45:00,
2013-03-25 20:49:00,43.2,26.7,29.62,SSE,158,1.6,3.5,52,0.00,CLR,,0.39,WeatherDisplay:10.37,2013-03-26 03:49:00,
2013-03-25 20:50:00,43.2,26.7,29.62,SSW,202,1.5,2.3,52,0.00,CLR,,0.39,WeatherDisplay:10.37,2013-03-26 03:50:00,
2013-03-25 20:54:00,43.2,26.2,29.62,NE,45,1.0,0.0,51,0.00,CLR,,0.39,WeatherDisplay:10.37,2013-03-26 03:54:00,
2013-03-25 20:55:00,43.2,26.2,29.62,NE,45,1.0,0.0,51,0.00,CLR,,0.39,WeatherDisplay:10.37,2013-03-26 03:55:00,
2013-03-25 20:59:00,43.0,26.1,29.62,SSE,158,0.5,1.5,51,0.00,CLR,,0.39,WeatherDisplay:10.37,2013-03-26 03:59:00,
2013-03-25 21:00:00,43.0,26.1,29.62,SSE,158,0.5,1.1,51,0.00,CLR,,0.39,WeatherDisplay:10.37,2013-03-26 04:00:00,
2013-03-25 21:05:00,43.0,26.5,29.62,SE,135,0.9,2.3,52,0.00,CLR,,0.39,WeatherDisplay:10.37,2013-03-26 04:05:00,
2013-03-25 21:10:00,42.8,26.4,29.62,SSE,158,0.7,0.0,52,0.00,CLR,,0.39,WeatherDisplay:10.37,2013-03-26 04:10:00,
2013-03-25 21:15:00,42.8,26.4,29.62,South,180,0.3,1.1,52,0.00,CLR,,0.39,WeatherDisplay:10.37,2013-03-26 04:15:00,
2013-03-25 21:16:00,42.6,26.7,29.62,SSE,158,0.3,2.3,53,0.00,CLR,,0.39,WeatherDisplay:10.37,2013-03-26 04:16:00,
2013-03-25 21:20:00,42.6,26.7,29.62,South,180,0.3,1.6,53,0.00,CLR,,0.39,WeatherDisplay:10.37,2013-03-26 04:20:00,
2013-03-25 21:21:00,42.6,27.1,29.63,SE,135,0.3,1.1,54,0.00,CLR,,0.39,WeatherDisplay:10.37,2013-03-26 04:21:00,
2013-03-25 21:25:00,42.6,27.1,29.63,SSE,158,0.5,0.0,54,0.00,CLR,,0.39,WeatherDisplay:10.37,2013-03-26 04:25:00,
2013-03-25 21:26:00,42.6,27.1,29.63,SSE,158,0.5,2.6,54,0.00,CLR,,0.39,WeatherDisplay:10.37,2013-03-26 04:26:00,
2013-03-25 21:30:00,42.6,27.1,29.63,South,180,0.7,2.3,54,0.00,CLR,,0.39,WeatherDisplay:10.37,2013-03-26 04:30:00,
2013-03-25 21:31:00,42.6,27.1,29.63,South,180,0.7,2.3,54,0.00,CLR,,0.39,WeatherDisplay:10.37,2013-03-26 04:31:00,
2013-03-25 21:32:00,42.4,27.0,29.63,SSE,158,0.8,1.1,54,0.00,CLR,,0.39,WeatherDisplay:10.37,2013-03-26 04:32:00,
2013-03-25 21:36:00,42.4,27.0,29.63,SSE,158,1.1,2.3,54,0.00,CLR,,0.39,WeatherDisplay:10.37,2013-03-26 04:36:00,
2013-03-25 21:37:00,42.4,27.0,29.63,SSE,158,1.1,3.5,54,0.00,CLR,,0.39,WeatherDisplay:10.37,2013-03-26 04:37:00,
2013-03-25 21:41:00,42.4,27.0,29.64,SSE,158,1.1,1.1,54,0.00,CLR,,0.39,WeatherDisplay:10.37,2013-03-26 04:41:00,
2013-03-25 21:42:00,42.4,27.0,29.64,SSE,158,1.1,2.6,54,0.00,CLR,,0.39,WeatherDisplay:10.37,2013-03-26 04:42:00,
2013-03-25 21:47:00,42.3,26.8,29.64,SE,135,1.3,2.3,54,0.00,CLR,,0.39,WeatherDisplay:10.37,2013-03-26 04:47:00,
2013-03-25 21:52:00,42.3,26.8,29.64,SE,135,1.6,2.3,54,0.00,CLR,,0.39,WeatherDisplay:10.37,2013-03-26 04:52:00,
2013-03-25 21:53:00,42.3,26.8,29.64,SE,135,1.6,2.3,54,0.00,CLR,,0.39,WeatherDisplay:10.37,2013-03-26 04:53:00,
2013-03-25 21:57:00,42.3,26.8,29.64,SSE,158,1.5,4.6,54,0.00,CLR,,0.39,WeatherDisplay:10.37,2013-03-26 04:57:00,
2013-03-25 21:58:00,42.3,26.8,29.64,South,180,2.0,4.6,54,0.00,CLR,,0.39,WeatherDisplay:10.37,2013-03-26 04:58:00,
2013-03-25 22:02:00,42.1,26.6,29.63,SSE,158,1.7,4.6,54,0.00,CLR,,0.39,WeatherDisplay:10.37,2013-03-26 05:02:00,
2013-03-25 22:03:00,42.1,26.6,29.63,SSE,158,1.7,4.6,54,0.00,CLR,,0.39,WeatherDisplay:10.37,2013-03-26 05:03:00,
2013-03-25 22:08:00,41.9,26.4,29.63,SE,135,2.5,5.8,54,0.00,CLR,,0.39,WeatherDisplay:10.37,2013-03-26 05:08:00,
2013-03-25 22:13:00,41.9,26.4,29.63,SSE,158,3.3,3.5,54,0.00,CLR,,0.39,WeatherDisplay:10.37,2013-03-26 05:13:00,
2013-03-25 22:14:00,41.9,26.4,29.63,SSE,158,3.3,6.1,54,0.00,CLR,,0.39,WeatherDisplay:10.37,2013-03-26 05:14:00,
2013-03-25 22:15:00,41.9,26.4,29.63,SSE,158,3.3,6.1,54,0.00,CLR,,0.39,WeatherDisplay:10.37,2013-03-26 05:15:00,
2013-03-25 22:19:00,41.9,26.4,29.63,SSE,158,2.4,2.4,54,0.00,CLR,,0.39,WeatherDisplay:10.37,2013-03-26 05:19:00,
2013-03-25 22:20:00,41.9,26.4,29.63,WSW,248,2.4,2.6,54,0.00,CLR,,0.39,WeatherDisplay:10.37,2013-03-26 05:20:00,
2013-03-25 22:24:00,41.9,26.4,29.64,ESE,112,1.7,2.3,54,0.00,CLR,,0.39,WeatherDisplay:10.37,2013-03-26 05:24:00,
2013-03-25 22:25:00,41.9,26.4,29.64,ESE,112,1.7,2.3,54,0.00,CLR,,0.39,WeatherDisplay:10.37,2013-03-26 05:25:00,
2013-03-25 22:29:00,41.9,26.4,29.64,SSE,158,1.7,2.3,54,0.00,CLR,,0.39,WeatherDisplay:10.37,2013-03-26 05:29:00,
2013-03-25 22:30:00,41.9,26.4,29.64,SSE,158,1.7,2.3,54,0.00,CLR,,0.39,WeatherDisplay:10.37,2013-03-26 05:30:00,
2013-03-25 22:34:00,41.9,26.4,29.64,SSE,158,1.6,4.6,54,0.00,CLR,,0.39,WeatherDisplay:10.37,2013-03-26 05:34:00,
2013-03-25 22:35:00,41.9,26.4,29.64,SSE,158,1.6,4.6,54,0.00,CLR,,0.39,WeatherDisplay:10.37,2013-03-26 05:35:00,
2013-03-25 22:39:00,41.9,26.4,29.64,ESE,112,1.7,4.6,54,0.00,CLR,,0.39,WeatherDisplay:10.37,2013-03-26 05:39:00,
2013-03-25 22:40:00,41.9,26.4,29.64,ESE,112,1.7,4.6,54,0.00,CLR,,0.39,WeatherDisplay:10.37,2013-03-26 05:40:00,
2013-03-25 22:45:00,41.7,26.3,29.65,South,180,2.1,3.5,54,0.00,CLR,,0.39,WeatherDisplay:10.37,2013-03-26 05:45:00,
2013-03-25 22:50:00,41.7,26.3,29.65,SW,225,2.6,3.5,54,0.00,CLR,,0.39,WeatherDisplay:10.37,2013-03-26 05:50:00,
2013-03-25 22:55:00,41.7,26.3,29.65,SE,135,2.5,4.8,54,0.00,CLR,,0.39,WeatherDisplay:10.37,2013-03-26 05:55:00,
2013-03-25 22:56:00,41.7,26.3,29.65,SE,135,2.5,4.6,54,0.00,CLR,,0.39,WeatherDisplay:10.37,2013-03-26 05:56:00,
2013-03-25 23:00:00,41.7,26.3,29.65,SSE,158,2.2,2.3,54,0.00,CLR,,0.39,WeatherDisplay:10.37,2013-03-26 06:00:00,
2013-03-25 23:01:00,41.7,26.3,29.65,SSE,158,2.2,4.6,54,0.00,CLR,,0.39,WeatherDisplay:10.37,2013-03-26 06:01:00,
2013-03-25 23:05:00,41.5,26.1,29.64,South,180,2.3,3.5,54,0.00,CLR,,0.39,WeatherDisplay:10.37,2013-03-26 06:05:00,
2013-03-25 23:06:00,41.5,26.1,29.64,SW,225,2.0,3.5,54,0.00,CLR,,0.39,WeatherDisplay:10.37,2013-03-26 06:06:00,
2013-03-25 23:07:00,41.5,26.1,29.64,SSE,158,2.0,3.5,54,0.00,CLR,,0.39,WeatherDisplay:10.37,2013-03-26 06:07:00,
2013-03-25 23:10:00,41.5,26.1,29.64,ESE,112,2.0,3.5,54,0.00,CLR,,0.39,WeatherDisplay:10.37,2013-03-26 06:10:00,
2013-03-25 23:11:00,41.5,26.1,29.64,ESE,112,1.8,3.5,54,0.00,CLR,,0.39,WeatherDisplay:10.37,2013-03-26 06:11:00,
2013-03-25 23:12:00,41.5,26.1,29.64,ESE,112,1.8,3.5,54,0.00,CLR,,0.39,WeatherDisplay:10.37,2013-03-26 06:12:00,
2013-03-25 23:15:00,41.4,25.9,29.64,SSE,158,2.0,4.6,54,0.00,CLR,,0.39,WeatherDisplay:10.37,2013-03-26 06:15:00,
2013-03-25 23:16:00,41.4,25.9,29.64,SSE,158,2.0,4.6,54,0.00,CLR,,0.39,WeatherDisplay:10.37,2013-03-26 06:16:00,
2013-03-25 23:17:00,41.4,25.9,29.64,SSE,158,2.2,3.5,54,0.00,CLR,,0.39,WeatherDisplay:10.37,2013-03-26 06:17:00,